createdAt,value
2018-11-13T00:01:45.801Z,23.97
2018-11-13T00:04:18.863Z,23.20
2018-11-13T00:06:47.540Z,22.03
2018-11-13T00:09:19.656Z,22.37
2018-11-13T00:11:49.362Z,23.93
2018-11-13T00:14:25.690Z,21.33
2018-11-13T00:16:57.979Z,22.10
2018-11-13T00:19:29.895Z,22.37
2018-11-13T00:21:59.555Z,22.43
2018-11-13T00:24:30.235Z,22.27
2018-11-13T00:26:58.775Z,21.53
2018-11-13T00:29:27.411Z,22.10
2018-11-13T00:32:01.315Z,21.93
2018-11-13T00:34:32.000Z,21.27
2018-11-13T00:37:01.580Z,23.07
2018-11-13T00:39:40.863Z,22.80
2018-11-13T00:42:11.474Z,21.97
2018-11-13T00:44:43.911Z,22.87
2018-11-13T00:47:12.540Z,22.63
2018-11-13T00:49:51.206Z,22.00
2018-11-13T00:52:27.160Z,23.50
2018-11-13T00:54:55.812Z,21.87
2018-11-13T00:57:24.406Z,21.90
2018-11-13T00:59:53.980Z,22.20
2018-11-13T01:02:25.694Z,21.87
2018-11-13T01:04:57.984Z,22.43
2018-11-13T01:07:27.737Z,22.67
2018-11-13T01:09:56.284Z,23.17
2018-11-13T01:12:26.901Z,23.80
2018-11-13T01:14:58.749Z,22.07
2018-11-13T01:17:39.300Z,21.80
2018-11-13T01:20:08.962Z,22.17
2018-11-13T01:22:37.591Z,22.47
2018-11-13T01:25:13.330Z,22.57
2018-11-13T01:27:48.004Z,22.63
2018-11-13T01:30:17.951Z,22.93
2018-11-13T01:32:51.271Z,21.37
2018-11-13T01:35:21.824Z,23.20
2018-11-13T01:37:51.420Z,23.47
2018-11-13T01:40:21.163Z,22.73
2018-11-13T01:42:49.793Z,23.90
2018-11-13T01:45:19.618Z,24.53
2018-11-13T01:47:53.279Z,24.77
2018-11-13T01:50:27.004Z,23.90
2018-11-13T01:52:57.570Z,25.07
2018-11-13T01:55:31.938Z,23.53
2018-11-13T01:58:01.527Z,24.60
2018-11-13T02:00:31.102Z,24.00
2018-11-13T02:02:59.771Z,25.03
2018-11-13T02:05:28.443Z,23.87
2018-11-13T02:07:57.312Z,24.80
2018-11-13T02:10:25.855Z,23.67
2018-11-13T02:12:54.456Z,24.60
2018-11-13T02:15:26.328Z,24.40
2018-11-13T02:17:54.952Z,24.67
2018-11-13T02:20:25.702Z,25.30
2018-11-13T02:22:58.130Z,24.47
2018-11-13T02:25:26.755Z,24.30
2018-11-13T02:27:55.376Z,26.57
2018-11-13T02:30:23.948Z,25.27
2018-11-13T02:32:52.566Z,24.57
2018-11-13T02:35:21.200Z,26.97
2018-11-13T02:37:53.131Z,24.90
2018-11-13T02:40:23.735Z,24.70
2018-11-13T02:42:55.890Z,26.10
2018-11-13T02:45:24.436Z,23.53
2018-11-13T02:47:52.969Z,24.63
2018-11-13T02:50:25.291Z,25.23
2018-11-13T02:52:53.879Z,26.40
2018-11-13T02:55:26.178Z,25.60
2018-11-13T02:57:54.743Z,26.27
2018-11-13T03:00:27.052Z,26.10
2018-11-13T03:02:55.794Z,26.57
2018-11-13T03:05:25.387Z,27.77
2018-11-13T03:07:55.003Z,27.50
2018-11-13T03:10:24.602Z,27.53
2018-11-13T03:12:55.202Z,27.47
2018-11-13T03:15:24.290Z,27.20
2018-11-13T03:17:52.875Z,27.23
2018-11-13T03:20:24.837Z,27.53
2018-11-13T03:22:53.453Z,26.50
2018-11-13T03:25:23.341Z,26.33
2018-11-13T03:27:53.964Z,28.13
2018-11-13T03:30:24.559Z,26.87
2018-11-13T03:32:57.721Z,28.03
2018-11-13T03:35:26.422Z,27.87
2018-11-13T03:37:55.052Z,27.20
2018-11-13T03:40:29.371Z,27.53
2018-11-13T03:42:58.000Z,28.13
2018-11-13T03:45:26.588Z,28.43
2018-11-13T03:47:55.160Z,27.83
2018-11-13T03:50:25.814Z,27.47
2018-11-13T03:52:56.492Z,26.27
2018-11-13T03:55:25.045Z,25.63
2018-11-13T03:57:53.653Z,24.10
2018-11-13T04:00:24.293Z,26.20
2018-11-13T04:02:52.870Z,24.87
2018-11-13T04:05:22.001Z,23.37
2018-11-13T04:07:55.048Z,23.30
2018-11-13T04:10:27.308Z,23.03
2018-11-13T04:12:56.871Z,21.70
2018-11-13T04:15:27.548Z,20.53
2018-11-13T04:17:56.174Z,19.70
2018-11-13T04:20:24.845Z,19.03
2018-11-13T04:25:37.496Z,16.70
2018-11-13T04:28:06.079Z,17.00
2018-11-13T04:30:39.351Z,15.40
2018-11-13T04:33:08.907Z,14.00
2018-11-13T04:35:40.739Z,14.67
2018-11-13T04:38:10.051Z,13.50
2018-11-13T04:40:39.608Z,13.13
2018-11-13T04:43:09.260Z,13.10
2018-11-13T04:45:39.851Z,12.37
2018-11-13T04:48:11.691Z,12.83
2018-11-13T04:50:42.295Z,12.43
2018-11-13T04:53:10.872Z,11.20
2018-11-13T04:55:40.617Z,12.10
2018-11-13T04:58:09.247Z,11.40
2018-11-13T05:00:37.844Z,10.70
2018-11-13T05:03:06.563Z,10.33
2018-11-13T05:05:36.507Z,10.93
2018-11-13T05:08:06.125Z,11.03
2018-11-13T05:10:35.117Z,10.70
2018-11-13T05:13:04.895Z,10.23
2018-11-13T05:15:34.344Z,10.40
2018-11-13T05:18:03.584Z,9.97
2018-11-13T05:20:33.299Z,9.60
2018-11-13T05:23:03.031Z,9.63
2018-11-13T05:25:35.114Z,9.20
2018-11-13T05:28:05.529Z,9.50
2018-11-13T05:30:35.148Z,8.77
2018-11-13T05:33:03.849Z,8.77
2018-11-13T05:35:32.504Z,9.43
2018-11-13T05:38:01.824Z,8.17
2018-11-13T05:40:30.366Z,8.43
2018-11-13T05:42:59.961Z,7.90
2018-11-13T05:45:29.606Z,8.10
2018-11-13T05:48:00.207Z,7.77
2018-11-13T05:50:28.812Z,8.03
2018-11-13T05:52:58.589Z,8.00
2018-11-13T05:55:27.276Z,7.93
2018-11-13T05:57:56.174Z,7.00
2018-11-13T06:00:33.262Z,8.27
2018-11-13T06:03:03.520Z,6.63
2018-11-13T06:05:32.497Z,7.17
2018-11-13T06:08:01.388Z,6.67
2018-11-13T06:10:30.262Z,6.57
2018-11-13T06:12:58.860Z,6.83
2018-11-13T06:15:28.742Z,6.67
2018-11-13T06:18:02.289Z,6.80
2018-11-13T06:20:30.921Z,16.67
2018-11-13T06:23:00.623Z,10.03
2018-11-13T06:25:30.223Z,6.53
2018-11-13T06:27:58.880Z,7.00
2018-11-13T06:30:28.795Z,6.13
2018-11-13T06:32:58.050Z,6.00
2018-11-13T06:35:30.352Z,6.10
2018-11-13T06:37:59.104Z,6.17
2018-11-13T06:40:28.272Z,5.97
2018-11-13T06:42:57.137Z,6.43
2018-11-13T06:45:26.017Z,6.47
2018-11-13T06:48:00.658Z,6.17
2018-11-13T06:50:31.343Z,6.30
2018-11-13T06:53:01.968Z,5.83
2018-11-13T06:55:44.041Z,6.17
2018-11-13T06:58:14.454Z,6.30
2018-11-13T07:00:43.372Z,6.47
2018-11-13T07:03:11.968Z,6.47
2018-11-13T07:05:40.577Z,6.27
2018-11-13T07:08:10.188Z,6.50
2018-11-13T07:10:38.728Z,5.77
2018-11-13T07:13:07.429Z,6.13
2018-11-13T07:15:35.969Z,5.30
2018-11-13T07:18:05.044Z,6.17
2018-11-13T07:20:37.199Z,5.20
2018-11-13T07:23:05.857Z,4.97
2018-11-13T07:25:35.531Z,5.23
2018-11-13T07:28:04.125Z,5.37
2018-11-13T07:30:35.901Z,4.97
2018-11-13T07:33:05.069Z,4.73
2018-11-13T07:35:33.673Z,5.00
2018-11-13T07:38:02.210Z,4.80
2018-11-13T07:40:30.982Z,4.20
2018-11-13T07:42:59.616Z,4.20
2018-11-13T07:45:30.120Z,4.87
2018-11-13T07:48:00.779Z,4.47
2018-11-13T07:50:30.311Z,4.00
2018-11-13T07:52:59.019Z,3.70
2018-11-13T07:55:27.668Z,4.07
2018-11-13T07:57:57.502Z,3.83
2018-11-13T08:00:29.559Z,3.70
2018-11-13T08:03:12.757Z,3.93
2018-11-13T08:05:42.481Z,21.30
2018-11-13T08:08:11.965Z,4.30
2018-11-13T08:10:40.602Z,3.40
2018-11-13T08:13:10.360Z,3.80
2018-11-13T08:15:38.923Z,3.80
2018-11-13T08:18:07.905Z,3.77
2018-11-13T08:20:41.311Z,3.40
2018-11-13T08:23:11.829Z,3.50
2018-11-13T08:25:40.537Z,3.33
2018-11-13T08:28:10.464Z,3.80
2018-11-13T08:30:40.353Z,3.20
2018-11-13T08:33:09.235Z,3.80
2018-11-13T08:35:40.028Z,4.20
2018-11-13T08:38:08.536Z,4.30
2018-11-13T08:40:37.261Z,3.53
2018-11-13T08:43:05.966Z,3.93
2018-11-13T08:45:34.803Z,3.83
2018-11-13T08:48:04.428Z,3.43
2018-11-13T08:50:35.098Z,4.33
2018-11-13T08:53:07.836Z,3.70
2018-11-13T08:55:36.749Z,3.60
2018-11-13T08:58:17.530Z,3.40
2018-11-13T09:00:46.152Z,3.20
2018-11-13T09:03:14.703Z,2.90
2018-11-13T09:05:43.345Z,3.40
2018-11-13T09:08:17.625Z,3.00
2018-11-13T09:10:46.250Z,3.30
2018-11-13T09:13:14.800Z,3.03
2018-11-13T09:15:44.350Z,3.57
2018-11-13T09:18:13.100Z,3.40
2018-11-13T09:20:42.635Z,3.53
2018-11-13T09:23:13.216Z,3.10
2018-11-13T09:25:41.789Z,2.60
2018-11-13T09:28:14.803Z,2.93
2018-11-13T09:30:43.638Z,3.20
2018-11-13T09:33:12.002Z,3.10
2018-11-13T09:35:40.579Z,3.10
2018-11-13T09:38:11.224Z,3.43
2018-11-13T09:40:39.839Z,3.13
2018-11-13T09:43:12.132Z,3.10
2018-11-13T09:45:40.818Z,3.10
2018-11-13T09:48:12.766Z,3.00
2018-11-13T09:50:41.423Z,3.20
2018-11-13T09:53:09.987Z,3.10
2018-11-13T09:55:41.956Z,3.13
2018-11-13T09:58:12.532Z,3.07
2018-11-13T10:00:42.245Z,2.90
2018-11-13T10:03:11.511Z,2.93
2018-11-13T10:05:39.608Z,2.93
2018-11-13T10:08:09.157Z,3.10
2018-11-13T10:10:43.456Z,3.00
2018-11-13T10:13:12.943Z,2.77
2018-11-13T10:15:44.731Z,2.90
2018-11-13T10:18:13.560Z,2.70
2018-11-13T10:20:42.101Z,2.80
2018-11-13T10:23:10.593Z,2.60
2018-11-13T10:25:41.232Z,2.50
2018-11-13T10:28:20.861Z,2.10
2018-11-13T10:30:55.128Z,2.57
2018-11-13T10:33:23.621Z,2.63
2018-11-13T10:35:53.267Z,2.60
2018-11-13T10:38:21.864Z,2.57
2018-11-13T10:40:50.723Z,2.43
2018-11-13T10:43:20.214Z,2.50
2018-11-13T10:45:48.854Z,2.50
2018-11-13T10:48:22.997Z,2.67
2018-11-13T10:50:51.597Z,2.27
2018-11-13T10:53:20.070Z,2.10
2018-11-13T10:55:48.784Z,2.10
2018-11-13T10:58:18.408Z,2.20
2018-11-13T11:00:59.862Z,2.00
2018-11-13T11:03:33.616Z,1.87
2018-11-13T11:06:13.530Z,2.27
2018-11-13T11:08:42.909Z,1.70
2018-11-13T11:11:11.527Z,2.07
2018-11-13T11:13:41.185Z,2.00
2018-11-13T11:16:10.664Z,1.80
2018-11-13T11:18:39.239Z,1.80
2018-11-13T11:21:12.399Z,1.87
2018-11-13T11:23:41.789Z,2.20
2018-11-13T11:26:13.716Z,2.20
2018-11-13T11:28:42.512Z,2.43
2018-11-13T11:31:11.486Z,1.87
2018-11-13T11:33:44.063Z,1.97
2018-11-13T11:36:14.652Z,1.90
2018-11-13T11:38:43.670Z,1.70
2018-11-13T11:41:13.188Z,1.90
2018-11-13T11:43:41.888Z,1.80
2018-11-13T11:46:10.485Z,1.93
2018-11-13T11:48:42.575Z,1.87
2018-11-13T11:51:12.182Z,2.03
2018-11-13T11:53:40.918Z,1.63
2018-11-13T11:56:12.592Z,1.90
2018-11-13T11:58:41.107Z,1.60
2018-11-13T12:01:13.247Z,1.80
2018-11-13T12:03:41.843Z,1.63
2018-11-13T12:06:10.433Z,1.70
2018-11-13T12:08:39.129Z,1.93
2018-11-13T12:11:09.683Z,1.90
2018-11-13T12:13:42.312Z,1.57
2018-11-13T12:16:15.846Z,2.00
2018-11-13T12:18:45.392Z,1.60
2018-11-13T12:21:15.159Z,1.77
2018-11-13T12:23:43.674Z,1.60
2018-11-13T12:26:12.284Z,1.90
2018-11-13T12:28:41.815Z,1.87
2018-11-13T12:31:10.427Z,1.87
2018-11-13T12:33:39.969Z,2.20
2018-11-13T12:36:08.646Z,1.60
2018-11-13T12:38:37.199Z,1.90
2018-11-13T12:41:05.815Z,1.80
2018-11-13T12:43:34.591Z,1.90
2018-11-13T12:46:04.170Z,1.77
2018-11-13T12:48:33.123Z,2.03
2018-11-13T12:51:05.039Z,2.10
2018-11-13T12:53:36.598Z,2.00
2018-11-13T12:56:07.198Z,1.80
2018-11-13T12:58:35.772Z,1.93
2018-11-13T13:01:05.328Z,2.00
2018-11-13T13:03:35.907Z,1.93
2018-11-13T13:06:08.115Z,2.17
2018-11-13T13:08:40.991Z,1.87
2018-11-13T13:11:09.407Z,2.00
2018-11-13T13:13:42.954Z,2.10
2018-11-13T13:16:12.966Z,2.17
2018-11-13T13:18:41.500Z,2.10
2018-11-13T13:21:13.584Z,1.97
2018-11-13T13:23:43.120Z,2.17
2018-11-13T13:26:11.840Z,1.93
2018-11-13T13:28:40.552Z,1.83
2018-11-13T13:31:10.407Z,2.10
2018-11-13T13:33:41.038Z,1.93
2018-11-13T13:36:11.647Z,2.00
2018-11-13T13:38:40.311Z,1.60
2018-11-13T13:41:09.797Z,1.83
2018-11-13T13:43:38.349Z,2.00
2018-11-13T13:46:06.907Z,1.87
2018-11-13T13:48:38.864Z,1.60
2018-11-13T13:51:07.512Z,1.97
2018-11-13T13:53:36.144Z,2.10
2018-11-13T13:56:04.754Z,1.80
2018-11-13T13:58:34.291Z,1.90
2018-11-13T14:01:03.909Z,1.83
2018-11-13T14:03:34.858Z,2.07
2018-11-13T14:06:04.289Z,2.00
2018-11-13T14:08:32.822Z,1.97
2018-11-13T14:11:11.030Z,1.80
2018-11-13T14:13:39.683Z,2.00
2018-11-13T14:16:08.392Z,2.30
2018-11-13T14:18:37.833Z,2.50
2018-11-13T14:21:14.659Z,2.13
2018-11-13T14:23:47.770Z,2.10
2018-11-13T14:26:16.292Z,2.20
2018-11-13T14:28:44.935Z,2.17
2018-11-13T14:31:14.556Z,1.90
2018-11-13T14:33:44.564Z,1.70
2018-11-13T14:36:13.137Z,1.83
2018-11-13T14:38:41.749Z,2.12
2018-11-13T14:41:10.357Z,2.37
2018-11-13T14:43:38.987Z,1.70
2018-11-13T14:46:07.520Z,2.00
2018-11-13T14:48:36.096Z,2.00
2018-11-13T14:51:07.784Z,2.10
2018-11-13T14:53:36.352Z,2.10
2018-11-13T14:56:06.961Z,1.80
2018-11-13T14:58:35.532Z,2.00
2018-11-13T15:01:05.779Z,2.23
2018-11-13T15:03:34.357Z,1.67
2018-11-13T15:06:02.979Z,2.00
2018-11-13T15:08:31.571Z,1.93
2018-11-13T15:11:00.157Z,2.03
2018-11-13T15:13:29.780Z,1.90
2018-11-13T15:15:58.439Z,2.00
2018-11-13T15:18:28.842Z,2.20
2018-11-13T15:20:57.452Z,1.90
2018-11-13T15:23:26.111Z,2.23
2018-11-13T15:25:55.227Z,2.20
2018-11-13T15:28:29.392Z,2.80
2018-11-13T15:30:58.069Z,2.43
2018-11-13T15:33:26.719Z,2.17
2018-11-13T15:35:55.433Z,2.13
2018-11-13T15:38:24.453Z,2.27
2018-11-13T15:40:53.048Z,1.87
2018-11-13T15:43:22.701Z,2.20
2018-11-13T15:45:55.262Z,2.13
2018-11-13T15:48:23.843Z,2.40
2018-11-13T15:50:52.467Z,2.10
2018-11-13T15:53:22.120Z,2.13
2018-11-13T15:55:50.667Z,2.20
2018-11-13T15:58:19.267Z,2.17
2018-11-13T16:00:51.293Z,2.00
2018-11-13T16:03:21.802Z,2.10
2018-11-13T16:05:53.896Z,2.10
2018-11-13T16:08:23.519Z,2.40
2018-11-13T16:10:52.087Z,2.10
2018-11-13T16:13:20.701Z,2.40
2018-11-13T16:15:50.104Z,2.80
2018-11-13T16:18:23.696Z,2.40
2018-11-13T16:20:52.350Z,2.13
2018-11-13T16:23:20.853Z,2.30
2018-11-13T16:25:49.504Z,2.17
2018-11-13T16:28:20.900Z,3.03
2018-11-13T16:30:50.015Z,2.77
2018-11-13T16:33:18.316Z,2.60
2018-11-13T16:35:46.867Z,2.97
2018-11-13T16:38:16.267Z,2.60
2018-11-13T16:40:44.756Z,3.10
2018-11-13T16:43:13.397Z,2.60
2018-11-13T16:45:43.008Z,2.40
2018-11-13T16:48:17.340Z,3.43
2018-11-13T16:50:50.130Z,2.57
2018-11-13T16:53:24.153Z,2.80
2018-11-13T16:55:56.715Z,2.70
2018-11-13T16:58:25.384Z,2.67
2018-11-13T17:00:54.020Z,2.50
2018-11-13T17:03:22.603Z,3.07
2018-11-13T17:05:51.279Z,2.00
2018-11-13T17:08:20.791Z,3.00
2018-11-13T17:10:50.319Z,2.70
2018-11-13T17:13:20.172Z,2.43
2018-11-13T17:15:49.767Z,3.10
2018-11-13T17:18:18.394Z,2.67
2018-11-13T17:20:49.086Z,2.83
2018-11-13T17:23:17.620Z,3.20
2018-11-13T17:25:46.237Z,2.70
2018-11-13T17:28:16.018Z,3.13
2018-11-13T17:30:44.783Z,3.20
2018-11-13T17:33:13.412Z,2.77
2018-11-13T17:35:42.051Z,2.83
2018-11-13T17:38:10.824Z,2.97
2018-11-13T17:40:55.344Z,2.87
2018-11-13T17:43:23.940Z,2.77
2018-11-13T17:45:52.463Z,3.10
2018-11-13T17:48:21.049Z,2.90
2018-11-13T17:50:49.701Z,2.93
2018-11-13T17:53:19.301Z,3.50
2018-11-13T17:55:47.991Z,6.30
2018-11-13T17:58:16.605Z,3.60
2018-11-13T18:00:46.626Z,3.13
2018-11-13T18:03:18.329Z,6.87
2018-11-13T18:05:48.861Z,4.13
2018-11-13T18:08:18.929Z,4.70
2018-11-13T18:10:47.852Z,6.23
2018-11-13T18:13:16.517Z,6.00
2018-11-13T18:15:47.151Z,3.63
2018-11-13T18:18:17.832Z,4.97
2018-11-13T18:20:46.439Z,3.87
2018-11-13T18:23:16.032Z,4.77
2018-11-13T18:25:44.659Z,6.27
2018-11-13T18:28:14.413Z,3.83
2018-11-13T18:30:43.207Z,5.13
2018-11-13T18:33:11.816Z,5.27
2018-11-13T18:35:40.920Z,13.60
2018-11-13T18:38:12.249Z,5.93
2018-11-13T18:40:43.865Z,7.97
2018-11-13T18:43:13.530Z,4.50
2018-11-13T18:45:43.448Z,3.97
2018-11-13T18:48:12.624Z,4.37
2018-11-13T18:50:43.411Z,3.30
2018-11-13T18:53:12.057Z,11.57
2018-11-13T18:55:41.150Z,4.37
2018-11-13T18:58:10.003Z,3.77
2018-11-13T19:00:39.628Z,4.10
2018-11-13T19:03:10.535Z,5.27
2018-11-13T19:05:51.141Z,4.10
2018-11-13T19:08:20.700Z,5.43
2018-11-13T19:10:50.697Z,3.40
2018-11-13T19:13:22.353Z,4.07
2018-11-13T19:16:00.508Z,4.00
2018-11-13T19:18:29.209Z,4.33
2018-11-13T19:20:57.770Z,3.27
2018-11-13T19:23:30.392Z,4.50
2018-11-13T19:25:59.131Z,3.90
2018-11-13T19:28:27.771Z,4.27
2018-11-13T19:30:56.490Z,5.03
2018-11-13T19:33:25.105Z,5.10
2018-11-13T19:35:53.772Z,4.67
2018-11-13T19:38:22.542Z,3.90
2018-11-13T19:40:52.104Z,4.07
2018-11-13T19:43:20.842Z,3.50
2018-11-13T19:45:56.121Z,3.60
2018-11-13T19:48:24.684Z,4.07
2018-11-13T19:50:53.353Z,5.45
2018-11-13T19:53:23.069Z,4.40
2018-11-13T19:55:54.941Z,4.60
2018-11-13T19:58:23.596Z,8.00
2018-11-13T20:00:52.548Z,4.40
2018-11-13T20:03:21.134Z,3.67
2018-11-13T20:05:50.757Z,3.67
2018-11-13T20:08:19.497Z,3.50
2018-11-13T20:10:48.136Z,3.40
2018-11-13T20:13:19.019Z,3.90
2018-11-13T20:15:48.677Z,5.60
2018-11-13T20:18:18.336Z,5.33
2018-11-13T20:20:46.911Z,4.37
2018-11-13T20:23:15.573Z,3.90
2018-11-13T20:25:49.552Z,3.20
2018-11-13T20:28:18.132Z,5.37
2018-11-13T20:30:47.791Z,6.60
2018-11-13T20:33:16.468Z,4.00
2018-11-13T20:35:45.466Z,5.77
2018-11-13T20:38:14.069Z,4.53
2018-11-13T20:40:42.611Z,3.63
2018-11-13T20:43:14.578Z,5.00
2018-11-13T20:45:44.020Z,3.67
2018-11-13T20:48:12.663Z,4.17
2018-11-13T20:50:41.277Z,3.40
2018-11-13T20:53:09.923Z,42.37
2018-11-13T20:55:38.657Z,4.90
2018-11-13T20:58:07.406Z,3.60
2018-11-13T21:00:37.564Z,4.43
2018-11-13T21:03:07.140Z,3.60
2018-11-13T21:05:36.371Z,4.07
2018-11-13T21:08:05.440Z,3.97
2018-11-13T21:10:38.132Z,3.50
2018-11-13T21:13:07.709Z,3.47
2018-11-13T21:15:36.806Z,3.57
2018-11-13T21:18:08.833Z,3.93
2018-11-13T21:20:37.882Z,3.80
2018-11-13T21:23:08.447Z,3.80
2018-11-13T21:25:37.044Z,3.27
2018-11-13T21:28:06.060Z,3.70
2018-11-13T21:30:34.686Z,4.13
2018-11-13T21:33:05.979Z,3.60
2018-11-13T21:35:35.637Z,4.77
2018-11-13T21:38:05.839Z,3.93
2018-11-13T21:40:37.864Z,4.20
2018-11-13T21:43:07.561Z,4.20
2018-11-13T21:45:46.831Z,3.73
2018-11-13T21:48:15.468Z,4.43
2018-11-13T21:50:44.101Z,4.23
2018-11-13T21:53:14.869Z,5.00
2018-11-13T21:55:44.554Z,4.30
2018-11-13T21:58:14.100Z,4.40
2018-11-13T22:00:42.815Z,4.27
2018-11-13T22:03:11.524Z,4.40
2018-11-13T22:05:40.082Z,3.90
2018-11-13T22:08:08.728Z,4.20
2018-11-13T22:10:42.413Z,3.83
2018-11-13T22:13:11.003Z,4.50
2018-11-13T22:15:39.564Z,4.07
2018-11-13T22:18:08.177Z,4.13
2018-11-13T22:20:43.614Z,4.27
2018-11-13T22:23:10.676Z,3.93
2018-11-13T22:25:40.299Z,4.77
2018-11-13T22:28:09.392Z,4.43
2018-11-13T22:30:39.746Z,4.00
2018-11-13T22:33:08.137Z,4.47
2018-11-13T22:35:37.804Z,3.77
2018-11-13T22:38:06.454Z,4.00
2018-11-13T22:40:35.996Z,4.10
2018-11-13T22:43:05.863Z,4.50
2018-11-13T22:45:41.456Z,4.57
2018-11-13T22:48:10.045Z,4.30
2018-11-13T22:50:38.659Z,3.90
2018-11-13T22:53:10.922Z,4.50
2018-11-13T22:55:39.519Z,4.07
2018-11-13T22:58:08.185Z,4.20
2018-11-13T23:00:44.207Z,4.27
2018-11-13T23:03:14.913Z,3.90
2018-11-13T23:05:44.468Z,4.47
2018-11-13T23:08:15.523Z,4.10
2018-11-13T23:10:45.177Z,4.67
2018-11-13T23:13:13.743Z,4.57
2018-11-13T23:15:42.462Z,4.27
2018-11-13T23:18:12.137Z,4.50
2018-11-13T23:20:41.005Z,4.80
2018-11-13T23:23:11.593Z,3.40
2018-11-13T23:25:40.241Z,4.23
2018-11-13T23:28:08.927Z,5.77
2018-11-13T23:30:37.542Z,4.37
2018-11-13T23:33:08.431Z,4.90
2018-11-13T23:35:38.814Z,4.03
2018-11-13T23:38:07.348Z,4.30
2018-11-13T23:40:36.167Z,4.60
2018-11-13T23:43:04.704Z,4.97
2018-11-13T23:45:33.272Z,4.73
2018-11-13T23:48:02.225Z,5.10
2018-11-13T23:50:30.644Z,4.80
2018-11-13T23:52:59.265Z,4.30
2018-11-13T23:55:27.945Z,4.60
2018-11-13T23:58:00.177Z,5.17
